Time;durP1;ratioP1;P1;durP2;ratioP2;P2;SDS_P1;SDS_P2;PMS_P1;PMS_P2;Temp;Humidity;BMP_temperature;BMP_pressure;BME280_temperature;BME280_humidity;BME280_pressure;Samples;Min_cycle;Max_cycle;Signal;HPM_P1;HPM_P2
2022/04/03 00:00:36;;;;;;;20.10;16.63;;;0.50;99.90;;;;;;5051933;28;20488;-59
2022/04/03 00:03:03;;;;;;;19.45;16.77;;;0.50;99.90;;;;;;5051910;28;20021;-57
2022/04/03 00:05:29;;;;;;;21.48;16.42;;;0.50;99.90;;;;;;5051631;28;20033;-59
2022/04/03 00:07:55;;;;;;;19.48;17.23;;;0.50;99.90;;;;;;5051992;28;20036;-58
2022/04/03 00:10:23;;;;;;;20.10;17.75;;;0.50;99.90;;;;;;5051546;28;20052;-59
2022/04/03 00:12:50;;;;;;;20.17;16.73;;;0.40;99.90;;;;;;5051783;28;20481;-59
2022/04/03 00:15:16;;;;;;;21.45;17.92;;;0.40;99.90;;;;;;5051070;28;20028;-58
2022/04/03 00:17:43;;;;;;;23.10;17.50;;;0.40;99.90;;;;;;5050775;28;20033;-59
2022/04/03 00:20:10;;;;;;;20.55;17.67;;;0.50;99.90;;;;;;5050895;28;20021;-58
2022/04/03 00:22:35;;;;;;;25.38;20.73;;;0.50;99.90;;;;;;5051111;28;20028;-59
2022/04/03 00:25:02;;;;;;;20.85;17.73;;;0.40;99.90;;;;;;5050873;28;20507;-60
2022/04/03 00:27:28;;;;;;;23.95;17.95;;;0.40;99.90;;;;;;5051065;28;20017;-58
2022/04/03 00:29:54;;;;;;;21.63;18.80;;;0.50;99.90;;;;;;5049889;28;20495;-58
2022/04/03 00:32:19;;;;;;;22.23;18.02;;;0.50;99.90;;;;;;5051434;28;20029;-59
2022/04/03 00:34:46;;;;;;;20.50;17.50;;;0.50;99.90;;;;;;5051627;28;20111;-60
2022/04/03 00:37:11;;;;;;;19.05;17.02;;;0.50;99.90;;;;;;5051346;28;20060;-58
2022/04/03 00:39:37;;;;;;;23.35;18.63;;;0.60;99.90;;;;;;5051185;28;20052;-59
2022/04/03 00:42:06;;;;;;;23.67;18.70;;;0.50;99.90;;;;;;5051206;28;20099;-58
2022/04/03 00:44:33;;;;;;;21.55;18.35;;;0.50;99.90;;;;;;5051211;28;20255;-59
2022/04/03 00:46:59;;;;;;;21.88;18.77;;;0.40;99.90;;;;;;5050623;28;20119;-58
2022/04/03 00:49:27;;;;;;;20.23;17.38;;;0.50;99.90;;;;;;5051233;28;20028;-59
2022/04/03 00:51:52;;;;;;;24.70;19.38;;;0.50;99.90;;;;;;5051093;28;20495;-57
2022/04/03 00:54:18;;;;;;;20.08;17.17;;;0.50;99.90;;;;;;5050781;28;20032;-59
2022/04/03 00:56:44;;;;;;;22.48;18.02;;;0.50;99.90;;;;;;5049671;28;20025;-59
2022/04/03 00:59:12;;;;;;;27.70;19.48;;;0.50;99.90;;;;;;5051064;28;20063;-58
2022/04/03 01:01:40;;;;;;;22.40;18.38;;;0.40;99.90;;;;;;5051241;28;20020;-58
2022/04/03 01:04:06;;;;;;;25.35;19.15;;;0.50;99.90;;;;;;5050490;28;20025;-58
2022/04/03 01:06:32;;;;;;;27.92;19.27;;;0.40;99.90;;;;;;5049381;28;20021;-59
2022/04/03 01:08:57;;;;;;;21.45;18.02;;;0.50;99.90;;;;;;5050988;28;20029;-59
2022/04/03 01:11:24;;;;;;;21.48;17.42;;;0.50;99.90;;;;;;5050078;28;20037;-59
2022/04/03 01:13:51;;;;;;;20.92;17.63;;;0.50;99.90;;;;;;5051118;28;20086;-59
2022/04/03 01:16:18;;;;;;;24.38;18.70;;;0.50;99.90;;;;;;5050652;28;20029;-59
2022/04/03 01:18:44;;;;;;;23.23;18.92;;;0.40;99.90;;;;;;5050584;28;20032;-59
2022/04/03 01:21:10;;;;;;;25.90;19.15;;;0.40;99.90;;;;;;5050361;28;20056;-58
2022/04/03 01:23:36;;;;;;;23.45;18.58;;;0.40;99.90;;;;;;5049928;28;20021;-59
2022/04/03 01:26:02;;;;;;;22.50;17.27;;;0.40;99.90;;;;;;5050331;28;20013;-58
2022/04/03 01:28:28;;;;;;;21.92;17.50;;;0.50;99.90;;;;;;5050032;28;20048;-58
2022/04/03 01:30:54;;;;;;;23.85;18.08;;;0.50;99.90;;;;;;5050302;28;20056;-58
2022/04/03 01:33:19;;;;;;;21.55;18.58;;;0.50;99.90;;;;;;5050881;28;20091;-59
2022/04/03 01:35:45;;;;;;;22.38;18.20;;;0.40;99.90;;;;;;5050189;28;20113;-59
2022/04/03 01:38:11;;;;;;;20.67;17.50;;;0.40;99.90;;;;;;5050184;28;20526;-58
2022/04/03 01:40:37;;;;;;;23.80;19.52;;;0.30;99.90;;;;;;5050594;28;20057;-58
2022/04/03 01:43:04;;;;;;;23.33;17.70;;;0.30;99.90;;;;;;5050627;28;20449;-58
2022/04/03 01:45:31;;;;;;;21.92;18.25;;;0.40;99.90;;;;;;5050874;28;20047;-59
2022/04/03 01:47:56;;;;;;;22.83;18.42;;;0.40;99.90;;;;;;5050231;28;20044;-60
2022/04/03 01:50:22;;;;;;;21.58;18.10;;;0.40;99.90;;;;;;5050487;28;20384;-60
2022/04/03 01:52:49;;;;;;;22.48;17.90;;;0.40;99.90;;;;;;5050184;28;20024;-59
2022/04/03 01:55:15;;;;;;;21.45;17.50;;;0.30;99.90;;;;;;5050391;28;20036;-59
2022/04/03 01:57:41;;;;;;;18.90;16.27;;;0.40;99.90;;;;;;5049842;28;20480;-59
2022/04/03 02:00:10;;;;;;;24.02;17.00;;;0.40;99.90;;;;;;5049809;28;20056;-58
2022/04/03 02:02:36;;;;;;;23.25;18.17;;;0.30;99.90;;;;;;5050739;28;20044;-58
2022/04/03 02:05:03;;;;;;;28.45;16.80;;;0.30;99.90;;;;;;5048691;28;20028;-59
2022/04/03 02:07:29;;;;;;;22.42;16.85;;;0.30;99.90;;;;;;5051241;28;20551;-59
2022/04/03 02:09:55;;;;;;;21.45;17.75;;;0.30;99.90;;;;;;5053420;28;20025;-59
2022/04/03 02:12:21;;;;;;;19.85;16.60;;;0.30;99.90;;;;;;5052661;28;20380;-59
2022/04/03 02:14:46;;;;;;;21.02;16.35;;;0.30;99.90;;;;;;5051847;28;20036;-59
2022/04/03 02:17:12;;;;;;;19.35;16.33;;;0.30;99.90;;;;;;5052745;28;20037;-59
2022/04/03 02:19:37;;;;;;;20.35;15.75;;;0.30;99.90;;;;;;5052112;28;20013;-58
2022/04/03 02:22:03;;;;;;;22.73;15.35;;;0.30;99.90;;;;;;5053491;28;20506;-59
2022/04/03 02:24:29;;;;;;;23.75;16.60;;;0.30;99.90;;;;;;5052565;28;20087;-59
2022/04/03 02:26:54;;;;;;;22.98;16.85;;;0.30;99.90;;;;;;5053298;28;20028;-59
2022/04/03 02:29:20;;;;;;;18.65;14.45;;;0.30;99.90;;;;;;5053507;28;20021;-59
2022/04/03 02:31:46;;;;;;;17.63;14.75;;;0.40;99.90;;;;;;5053417;28;20032;-57
2022/04/03 02:34:11;;;;;;;17.90;15.00;;;0.40;99.90;;;;;;5052458;28;20097;-58
2022/04/03 02:36:40;;;;;;;22.15;16.52;;;0.40;99.90;;;;;;5052803;28;20025;-58
2022/04/03 02:39:06;;;;;;;21.67;16.20;;;0.40;99.90;;;;;;5053155;28;20033;-59
2022/04/03 02:41:33;;;;;;;18.88;15.57;;;0.40;99.90;;;;;;5051346;28;20029;-59
2022/04/03 02:43:58;;;;;;;25.15;16.38;;;0.40;99.90;;;;;;5052923;28;20100;-59
2022/04/03 02:46:24;;;;;;;18.08;15.10;;;0.50;99.90;;;;;;5052933;28;20025;-59
2022/04/03 02:48:50;;;;;;;20.30;15.90;;;0.40;99.90;;;;;;5052628;28;20021;-60
2022/04/03 02:51:15;;;;;;;21.17;16.75;;;0.40;99.90;;;;;;5053448;28;20055;-59
2022/04/03 02:53:41;;;;;;;17.30;14.95;;;0.40;99.90;;;;;;5052663;28;20498;-58
2022/04/03 02:56:07;;;;;;;19.65;16.45;;;0.50;99.90;;;;;;5052549;28;20643;-59
2022/04/03 02:58:32;;;;;;;18.45;15.75;;;0.40;99.90;;;;;;5051780;28;20029;-58
2022/04/03 03:00:58;;;;;;;18.92;15.18;;;0.50;99.90;;;;;;5052265;28;20024;-59
2022/04/03 03:03:24;;;;;;;17.45;14.27;;;0.50;99.90;;;;;;5052924;28;20040;-60
2022/04/03 03:05:49;;;;;;;25.13;17.02;;;0.50;99.90;;;;;;5053047;28;20484;-59
2022/04/03 03:08:15;;;;;;;19.23;14.55;;;0.50;99.90;;;;;;5053072;28;20133;-57
2022/04/03 03:10:41;;;;;;;23.20;14.60;;;0.40;99.90;;;;;;5052151;28;20079;-59
2022/04/03 03:13:15;;;;;;;17.80;14.27;;;0.50;99.90;;;;;;5052659;28;20037;-59
2022/04/03 03:15:41;;;;;;;22.23;15.07;;;0.50;99.90;;;;;;5050713;28;20489;-59
2022/04/03 03:18:07;;;;;;;18.83;15.20;;;0.50;99.90;;;;;;5052347;28;20043;-59
2022/04/03 03:20:33;;;;;;;20.90;15.63;;;0.50;99.90;;;;;;5051806;28;20098;-57
2022/04/03 03:23:00;;;;;;;18.65;14.60;;;0.50;99.90;;;;;;5052597;28;20033;-58
2022/04/03 03:25:26;;;;;;;20.40;14.93;;;0.50;99.90;;;;;;5051896;28;20022;-59
2022/04/03 03:27:51;;;;;;;17.92;15.20;;;0.50;99.90;;;;;;5052327;28;20515;-60
2022/04/03 03:30:17;;;;;;;16.95;14.20;;;0.50;99.90;;;;;;5051713;28;20037;-59
2022/04/03 03:32:43;;;;;;;16.08;13.68;;;0.50;99.90;;;;;;5052431;28;20116;-59
2022/04/03 03:35:10;;;;;;;19.50;15.38;;;0.50;99.90;;;;;;5052227;28;20108;-59
2022/04/03 03:37:37;;;;;;;21.25;15.15;;;0.50;99.90;;;;;;5052128;28;20075;-58
2022/04/03 03:40:06;;;;;;;18.85;14.38;;;0.50;99.90;;;;;;5051945;28;20025;-59
2022/04/03 03:42:32;;;;;;;18.38;15.55;;;0.50;99.90;;;;;;5052518;28;20035;-59
2022/04/03 03:44:59;;;;;;;17.83;15.90;;;0.50;99.90;;;;;;5052378;28;20028;-59
2022/04/03 03:47:25;;;;;;;21.20;15.95;;;0.50;99.90;;;;;;5052318;28;20031;-59
2022/04/03 03:49:51;;;;;;;20.45;15.00;;;0.40;99.90;;;;;;5052160;28;20029;-59
2022/04/03 03:52:17;;;;;;;24.63;15.48;;;0.50;99.90;;;;;;5052319;28;20035;-59
2022/04/03 03:54:44;;;;;;;22.33;14.43;;;0.50;99.90;;;;;;5052230;28;20049;-59
2022/04/03 03:57:10;;;;;;;18.27;14.27;;;0.50;99.90;;;;;;5051257;28;20413;-58
2022/04/03 03:59:36;;;;;;;16.80;14.95;;;0.60;99.90;;;;;;5054478;28;20116;-59
2022/04/03 04:02:02;;;;;;;17.40;15.32;;;0.60;99.90;;;;;;5051748;28;20060;-59
2022/04/03 04:04:29;;;;;;;17.05;14.57;;;0.60;99.90;;;;;;5050747;28;20022;-59
2022/04/03 04:06:55;;;;;;;17.45;14.00;;;0.50;99.90;;;;;;5052213;28;20017;-60
2022/04/03 04:09:21;;;;;;;17.45;14.82;;;0.50;99.90;;;;;;5051704;28;20029;-59
2022/04/03 04:11:46;;;;;;;27.60;20.45;;;0.50;99.90;;;;;;5052040;28;20021;-60
2022/04/03 04:14:12;;;;;;;27.63;21.00;;;0.50;99.90;;;;;;5051954;28;20017;-59
2022/04/03 04:16:38;;;;;;;22.08;17.27;;;0.50;99.90;;;;;;5051925;28;20071;-59
2022/04/03 04:19:05;;;;;;;19.52;17.00;;;0.50;99.90;;;;;;5050682;28;20108;-59
2022/04/03 04:21:32;;;;;;;23.05;17.23;;;0.50;99.90;;;;;;5051195;28;20386;-58
2022/04/03 04:23:58;;;;;;;18.17;15.50;;;0.50;99.90;;;;;;5051602;28;20082;-59
2022/04/03 04:26:25;;;;;;;18.15;14.88;;;0.60;99.90;;;;;;5051732;28;20013;-57
2022/04/03 04:28:51;;;;;;;17.63;15.18;;;0.60;99.90;;;;;;5051708;28;20021;-59
2022/04/03 04:31:18;;;;;;;25.52;19.30;;;0.60;99.90;;;;;;5051296;28;20045;-58
2022/04/03 04:33:44;;;;;;;22.63;18.35;;;0.50;99.90;;;;;;5051666;28;20033;-57
2022/04/03 04:36:10;;;;;;;16.55;14.10;;;0.50;99.90;;;;;;5051332;28;20036;-58
2022/04/03 04:38:36;;;;;;;21.05;17.50;;;0.50;99.90;;;;;;5051499;28;20029;-59
2022/04/03 04:41:02;;;;;;;20.13;14.80;;;0.50;99.90;;;;;;5051673;28;20427;-59
2022/04/03 04:43:28;;;;;;;18.45;15.00;;;0.50;99.90;;;;;;5051566;28;20025;-59
2022/04/03 04:45:53;;;;;;;19.40;14.60;;;0.40;99.90;;;;;;5051558;28;20021;-58
2022/04/03 04:48:19;;;;;;;20.13;15.80;;;0.50;99.90;;;;;;5051101;28;20064;-58
2022/04/03 04:50:45;;;;;;;17.38;15.02;;;0.50;99.90;;;;;;5051120;28;20086;-59
2022/04/03 04:53:10;;;;;;;20.33;16.35;;;0.50;99.90;;;;;;5049657;28;20037;-59
2022/04/03 04:55:36;;;;;;;18.88;14.55;;;0.50;99.90;;;;;;5050696;28;20107;-59
2022/04/03 04:58:02;;;;;;;18.27;15.18;;;0.50;99.90;;;;;;5049514;28;20187;-57
2022/04/03 05:00:29;;;;;;;20.02;16.02;;;0.50;99.90;;;;;;5049774;28;20021;-59
2022/04/03 05:02:55;;;;;;;19.98;15.93;;;0.50;99.90;;;;;;5050179;28;20082;-59
2022/04/03 05:05:26;;;;;;;16.92;14.90;;;0.50;99.90;;;;;;5048698;28;20108;-58
2022/04/03 05:07:55;;;;;;;18.77;14.70;;;0.60;99.90;;;;;;5051049;28;20025;-58
2022/04/03 05:10:21;;;;;;;19.73;14.93;;;0.60;99.90;;;;;;5050277;28;20056;-59
2022/04/03 05:12:47;;;;;;;17.73;14.18;;;0.60;99.90;;;;;;5050493;28;20060;-56
2022/04/03 05:15:13;;;;;;;21.52;15.68;;;0.70;99.90;;;;;;5050104;28;20492;-60
2022/04/03 05:17:43;;;;;;;16.38;13.70;;;0.70;99.90;;;;;;5050123;28;20033;-58
2022/04/03 05:20:11;;;;;;;21.85;14.10;;;0.70;99.90;;;;;;5050401;28;20384;-58
2022/04/03 05:22:36;;;;;;;22.98;15.43;;;0.70;99.90;;;;;;5051046;28;20028;-57
2022/04/03 05:25:04;;;;;;;18.15;14.80;;;0.70;99.90;;;;;;5050935;28;20021;-59
2022/04/03 05:27:30;;;;;;;16.35;14.40;;;0.70;99.90;;;;;;5050233;28;20028;-58
2022/04/03 05:29:56;;;;;;;15.32;13.73;;;0.80;99.90;;;;;;5050261;28;20435;-59
2022/04/03 05:32:26;;;;;;;18.05;14.77;;;0.80;99.90;;;;;;5050680;28;20033;-59
2022/04/03 05:34:53;;;;;;;17.92;15.85;;;0.80;99.90;;;;;;5050287;28;20100;-58
2022/04/03 05:37:19;;;;;;;16.40;14.70;;;0.80;99.90;;;;;;5050769;28;20036;-58
2022/04/03 05:39:45;;;;;;;18.25;16.33;;;0.90;99.90;;;;;;5051032;28;20022;-59
2022/04/03 05:42:11;;;;;;;21.15;14.82;;;0.90;99.90;;;;;;5051128;28;20326;-58
2022/04/03 05:44:37;;;;;;;18.23;15.15;;;0.90;99.90;;;;;;5054865;28;20072;-57
2022/04/03 05:47:03;;;;;;;18.60;14.52;;;1.00;99.90;;;;;;5054543;28;20022;-58
2022/04/03 05:49:28;;;;;;;18.55;15.20;;;1.00;99.90;;;;;;5054702;28;20017;-59
2022/04/03 05:51:54;;;;;;;20.70;16.73;;;0.90;99.90;;;;;;5054550;28;20048;-58
2022/04/03 05:54:20;;;;;;;17.75;14.30;;;1.00;99.90;;;;;;5054584;28;20472;-57
2022/04/03 05:56:46;;;;;;;19.23;17.23;;;1.00;99.90;;;;;;5054347;28;20029;-59
2022/04/03 05:59:12;;;;;;;22.20;18.30;;;1.00;99.90;;;;;;5054166;28;20112;-59
2022/04/03 06:01:38;;;;;;;18.52;15.02;;;1.20;99.90;;;;;;5054225;28;20096;-58
2022/04/03 06:04:03;;;;;;;18.90;14.05;;;1.30;99.90;;;;;;5053943;28;20033;-59
2022/04/03 06:06:29;;;;;;;16.73;14.77;;;1.40;99.90;;;;;;5054162;28;20022;-59
2022/04/03 06:08:55;;;;;;;19.83;14.07;;;1.50;99.90;;;;;;5052747;28;20032;-59
2022/04/03 06:11:20;;;;;;;17.20;14.18;;;1.50;99.90;;;;;;5054138;28;20065;-59
2022/04/03 06:13:46;;;;;;;16.27;14.55;;;1.60;99.90;;;;;;5054053;28;20064;-59
2022/04/03 06:16:12;;;;;;;18.05;15.23;;;1.60;99.90;;;;;;5054041;28;20021;-59
2022/04/03 06:18:37;;;;;;;16.23;14.63;;;1.50;99.90;;;;;;5054098;28;20025;-59
2022/04/03 06:21:03;;;;;;;16.88;15.10;;;1.60;99.90;;;;;;5053913;28;20025;-58
2022/04/03 06:23:29;;;;;;;16.05;14.35;;;1.70;99.90;;;;;;5054146;28;20116;-57
2022/04/03 06:25:56;;;;;;;19.50;16.17;;;1.80;99.90;;;;;;5053894;28;20032;-59
2022/04/03 06:28:22;;;;;;;22.70;14.85;;;1.80;99.90;;;;;;5053860;28;20017;-58
2022/04/03 06:30:47;;;;;;;17.27;15.32;;;1.80;99.90;;;;;;5053676;28;20068;-59
2022/04/03 06:33:14;;;;;;;18.48;16.30;;;1.80;99.90;;;;;;5053736;28;20063;-58
2022/04/03 06:35:40;;;;;;;16.80;15.00;;;1.70;99.90;;;;;;5053849;28;20031;-57
2022/04/03 06:38:06;;;;;;;17.60;15.27;;;1.80;99.90;;;;;;5053448;28;20523;-58
2022/04/03 06:40:33;;;;;;;31.98;21.95;;;1.90;99.90;;;;;;5053228;28;20021;-59
2022/04/03 06:42:58;;;;;;;18.83;15.43;;;1.80;99.90;;;;;;5053434;28;20716;-58
2022/04/03 06:45:25;;;;;;;24.73;18.83;;;2.00;99.90;;;;;;5051757;28;20112;-59
2022/04/03 06:47:51;;;;;;;24.83;16.75;;;2.10;99.90;;;;;;5053380;28;20672;-59
2022/04/03 06:50:17;;;;;;;19.33;16.33;;;2.00;99.90;;;;;;5052042;28;20485;-57
2022/04/03 06:52:43;;;;;;;19.05;14.77;;;2.00;99.90;;;;;;5053532;28;20059;-59
2022/04/03 06:55:09;;;;;;;22.05;16.00;;;2.20;99.90;;;;;;5052027;28;20460;-59
2022/04/03 06:57:35;;;;;;;25.80;18.63;;;2.30;99.90;;;;;;5053246;28;20413;-59
2022/04/03 07:00:04;;;;;;;39.17;26.55;;;2.30;99.90;;;;;;5052752;28;20063;-59
2022/04/03 07:02:30;;;;;;;21.42;16.85;;;2.30;99.90;;;;;;5053255;28;20048;-59
2022/04/03 07:04:56;;;;;;;32.55;23.38;;;2.50;99.90;;;;;;5053163;28;20453;-60
2022/04/03 07:07:22;;;;;;;18.02;14.95;;;2.50;99.90;;;;;;5053086;28;20032;-59
2022/04/03 07:09:49;;;;;;;30.17;21.30;;;2.80;99.90;;;;;;5053128;28;20033;-60
2022/04/03 07:12:14;;;;;;;35.15;20.73;;;2.70;99.90;;;;;;5053129;28;20060;-59
2022/04/03 07:14:40;;;;;;;17.77;15.88;;;2.70;99.90;;;;;;5052843;28;20064;-59
2022/04/03 07:17:06;;;;;;;15.50;13.85;;;3.00;99.90;;;;;;5052766;28;20456;-58
2022/04/03 07:19:33;;;;;;;18.40;15.65;;;3.20;99.90;;;;;;5061477;28;20052;-60
2022/04/03 07:21:59;;;;;;;24.88;20.23;;;2.90;99.90;;;;;;5061814;28;20025;-59
2022/04/03 07:24:25;;;;;;;16.65;14.85;;;3.10;99.90;;;;;;5062225;28;20048;-60
2022/04/03 07:26:51;;;;;;;17.23;13.98;;;3.00;99.90;;;;;;5063382;28;20033;-60
2022/04/03 07:29:17;;;;;;;20.67;17.25;;;3.10;99.90;;;;;;5060868;28;20488;-59
2022/04/03 07:31:43;;;;;;;16.88;14.10;;;3.20;99.90;;;;;;5060814;28;20070;-60
2022/04/03 07:34:08;;;;;;;16.77;14.68;;;3.50;99.90;;;;;;5059625;28;20063;-59
2022/04/03 07:36:34;;;;;;;15.77;13.50;;;3.80;99.90;;;;;;5061491;28;20021;-59
2022/04/03 07:39:00;;;;;;;15.93;13.50;;;3.80;99.90;;;;;;5061802;28;20050;-58
2022/04/03 07:41:26;;;;;;;36.67;24.08;;;3.90;99.90;;;;;;5060408;28;20013;-59
2022/04/03 07:43:51;;;;;;;22.90;18.73;;;3.60;99.90;;;;;;5052420;28;20070;-60
2022/04/03 07:46:17;;;;;;;19.83;15.85;;;3.40;99.90;;;;;;5027963;28;20487;-58
2022/04/03 07:48:44;;;;;;;16.48;12.88;;;3.30;99.90;;;;;;5037317;28;20044;-60
2022/04/03 07:51:11;;;;;;;15.25;12.82;;;3.50;99.90;;;;;;5060338;28;20073;-60
2022/04/03 07:53:37;;;;;;;24.45;17.83;;;3.80;99.90;;;;;;5047021;28;20178;-60
2022/04/03 07:56:05;;;;;;;16.92;13.20;;;3.90;99.90;;;;;;5060486;28;20024;-59
2022/04/03 07:58:32;;;;;;;13.45;11.95;;;4.10;99.90;;;;;;5061261;28;20033;-60
2022/04/03 08:00:57;;;;;;;15.85;14.07;;;4.20;99.90;;;;;;5057535;28;20120;-60
2022/04/03 08:03:23;;;;;;;15.80;14.10;;;4.40;99.90;;;;;;5060625;28;20108;-60
2022/04/03 08:05:49;;;;;;;15.13;12.93;;;3.90;99.90;;;;;;5060300;28;20070;-60
2022/04/03 08:08:14;;;;;;;16.52;13.55;;;3.90;99.90;;;;;;5056474;28;22487;-60
2022/04/03 08:10:40;;;;;;;14.15;12.68;;;4.30;99.90;;;;;;5059509;28;20020;-60
2022/04/03 08:13:06;;;;;;;16.63;13.40;;;4.40;99.90;;;;;;5060641;28;20032;-60
2022/04/03 08:15:31;;;;;;;12.60;11.30;;;4.60;99.90;;;;;;5060916;28;20071;-59
2022/04/03 08:17:57;;;;;;;12.50;11.20;;;4.80;99.90;;;;;;5059974;28;20032;-60
2022/04/03 08:20:23;;;;;;;14.80;11.30;;;4.90;99.90;;;;;;5060385;28;20025;-60
2022/04/03 08:22:49;;;;;;;15.57;10.70;;;4.90;99.90;;;;;;5059943;28;20036;-59
2022/04/03 08:25:16;;;;;;;15.48;13.88;;;4.60;99.90;;;;;;5060967;28;20383;-60
2022/04/03 08:27:53;;;;;;;49.45;30.20;;;4.10;99.90;;;;;;5039199;28;20044;-60
2022/04/03 08:30:25;;;;;;;20.27;15.82;;;4.00;99.90;;;;;;5051615;28;20048;-60
2022/04/03 08:32:51;;;;;;;19.90;14.88;;;3.70;99.90;;;;;;5041820;28;20043;-59
2022/04/03 08:35:18;;;;;;;12.18;10.88;;;3.60;99.90;;;;;;5061076;28;20119;-60
2022/04/03 08:37:44;;;;;;;15.13;13.50;;;3.50;99.90;;;;;;5060924;28;20046;-60
2022/04/03 08:40:11;;;;;;;22.80;18.42;;;3.60;99.90;;;;;;5060362;28;20036;-60
2022/04/03 08:42:37;;;;;;;20.05;15.75;;;3.70;99.90;;;;;;5043351;28;20033;-60
2022/04/03 08:45:04;;;;;;;13.85;12.27;;;3.80;99.90;;;;;;5038618;28;20484;-60
2022/04/03 08:47:31;;;;;;;19.80;13.07;;;4.10;99.90;;;;;;5040453;28;20083;-59
2022/04/03 08:49:59;;;;;;;13.73;12.43;;;4.20;99.90;;;;;;5041015;28;20435;-60
2022/04/03 08:52:26;;;;;;;13.13;11.73;;;4.30;99.90;;;;;;5040923;28;20037;-57
2022/04/03 08:54:52;;;;;;;11.98;9.82;;;4.20;99.90;;;;;;5038400;28;20128;-60
2022/04/03 08:57:18;;;;;;;13.65;10.00;;;4.50;99.90;;;;;;5040913;28;20375;-58
2022/04/03 08:59:44;;;;;;;11.80;10.60;;;4.10;99.90;;;;;;5040479;28;20025;-59
2022/04/03 09:02:13;;;;;;;12.23;10.82;;;4.00;99.90;;;;;;5040377;28;20033;-59
2022/04/03 09:04:38;;;;;;;11.82;10.57;;;3.70;99.90;;;;;;5040766;28;20330;-58
2022/04/03 09:07:04;;;;;;;12.23;11.02;;;3.40;99.90;;;;;;5040168;28;20029;-58
2022/04/03 09:09:30;;;;;;;14.50;13.05;;;3.50;99.90;;;;;;5040592;28;20140;-60
2022/04/03 09:12:11;;;;;;;13.48;10.68;;;3.50;99.90;;;;;;5039999;28;20029;-59
2022/04/03 09:14:54;;;;;;;12.80;10.80;;;3.30;99.90;;;;;;5040138;28;20057;-59
2022/04/03 09:17:37;;;;;;;12.98;11.73;;;3.30;99.90;;;;;;5041884;28;20037;-59
2022/04/03 09:20:15;;;;;;;12.75;11.07;;;3.50;99.90;;;;;;5044096;28;20114;-60
2022/04/03 09:22:44;;;;;;;12.68;11.45;;;3.80;99.90;;;;;;5042914;28;20041;-60
2022/04/03 09:25:12;;;;;;;13.18;11.90;;;3.60;99.90;;;;;;5043166;28;20029;-60
2022/04/03 09:27:51;;;;;;;12.13;10.43;;;3.60;99.90;;;;;;5044638;28;20087;-60
2022/04/03 09:30:23;;;;;;;12.65;10.70;;;3.80;99.90;;;;;;5044437;28;20067;-61
2022/04/03 09:32:57;;;;;;;15.18;11.93;;;4.00;99.90;;;;;;5044067;28;20105;-61
2022/04/03 09:35:44;;;;;;;14.23;12.30;;;3.90;99.90;;;;;;5043570;28;20051;-61
2022/04/03 09:38:15;;;;;;;11.15;10.05;;;4.00;99.90;;;;;;5046417;28;20049;-60
2022/04/03 09:40:40;;;;;;;12.95;11.65;;;3.40;99.90;;;;;;5044104;28;20027;-60
2022/04/03 09:43:12;;;;;;;12.55;11.35;;;3.50;99.90;;;;;;5044607;28;20041;-60
2022/04/03 09:45:57;;;;;;;16.35;10.35;;;3.50;99.90;;;;;;5053243;28;20021;-56
2022/04/03 09:48:31;;;;;;;11.90;10.68;;;3.60;99.90;;;;;;5052766;28;20059;-59
2022/04/03 09:51:11;;;;;;;12.52;11.20;;;3.90;99.90;;;;;;5053563;28;20063;-60
2022/04/03 09:53:42;;;;;;;13.68;10.85;;;4.20;99.90;;;;;;5053535;28;20107;-60
2022/04/03 09:56:13;;;;;;;11.20;9.95;;;4.50;99.90;;;;;;5053909;28;20037;-58
2022/04/03 09:58:51;;;;;;;10.95;9.85;;;4.90;99.90;;;;;;5054069;28;20438;-59
2022/04/03 10:01:24;;;;;;;11.35;9.95;;;5.20;99.90;;;;;;5054011;28;20017;-59
2022/04/03 10:03:51;;;;;;;12.25;11.05;;;4.40;99.90;;;;;;5054069;28;20017;-59
2022/04/03 10:06:18;;;;;;;13.10;10.52;;;4.80;99.90;;;;;;5058559;28;20052;-60
2022/04/03 10:08:48;;;;;;;13.82;10.38;;;4.80;99.90;;;;;;5064078;28;20017;-60
2022/04/03 10:11:15;;;;;;;9.50;8.48;;;5.00;99.90;;;;;;5059015;28;20168;-60
2022/04/03 10:13:42;;;;;;;10.80;9.75;;;5.30;99.90;;;;;;5063185;28;20475;-60
2022/04/03 10:16:08;;;;;;;13.43;10.23;;;4.90;99.90;;;;;;5063022;28;20166;-60
2022/04/03 10:18:34;;;;;;;10.90;9.75;;;5.00;99.90;;;;;;5042747;28;20025;-60
2022/04/03 10:21:00;;;;;;;11.07;9.98;;;4.20;99.90;;;;;;5042786;28;20044;-60
2022/04/03 10:23:30;;;;;;;11.55;10.45;;;4.00;99.90;;;;;;5043380;28;20036;-60
2022/04/03 10:25:57;;;;;;;11.00;9.90;;;3.80;99.90;;;;;;5042581;28;20013;-60
2022/04/03 10:28:23;;;;;;;11.85;10.65;;;3.80;99.90;;;;;;5042774;28;20095;-60
2022/04/03 10:31:09;;;;;;;11.80;10.60;;;3.50;99.90;;;;;;5043010;28;20051;-60
2022/04/03 10:33:39;;;;;;;14.85;11.98;;;3.90;99.90;;;;;;5042021;28;20045;-60
2022/04/03 10:36:13;;;;;;;13.75;11.20;;;3.70;99.90;;;;;;5042408;28;20091;-59
2022/04/03 10:38:42;;;;;;;11.40;10.20;;;3.70;99.90;;;;;;5043022;28;20500;-60
2022/04/03 10:41:35;;;;;;;11.63;10.30;;;4.00;99.90;;;;;;5042631;28;20477;-60
2022/04/03 10:44:22;;;;;;;11.27;10.15;;;4.30;99.90;;;;;;5041663;28;20524;-60
2022/04/03 10:47:03;;;;;;;11.90;10.40;;;4.60;99.90;;;;;;5041948;28;20284;-60
2022/04/03 10:49:57;;;;;;;12.98;11.60;;;4.30;99.90;;;;;;5042592;28;20025;-60
2022/04/03 10:52:37;;;;;;;;;;;4.00;99.90;;;;;;5042192;28;20530;-60
2022/04/03 10:55:27;;;;;;;10.73;9.65;;;4.20;99.90;;;;;;5041991;28;19916;-60
2022/04/03 10:58:04;;;;;;;10.85;9.77;;;4.00;99.90;;;;;;5042090;28;20120;-60
2022/04/03 11:00:30;;;;;;;10.43;9.35;;;4.80;99.90;;;;;;5042200;28;20025;-60
2022/04/03 11:02:56;;;;;;;9.52;8.55;;;4.90;99.90;;;;;;5042438;28;20029;-60
2022/04/03 11:05:21;;;;;;;12.40;9.23;;;5.00;99.90;;;;;;5041854;28;20029;-60
2022/04/03 11:07:54;;;;;;;12.60;10.55;;;5.20;99.90;;;;;;5042412;28;20040;-59
2022/04/03 11:10:56;;;;;;;10.17;9.17;;;4.70;99.90;;;;;;5041878;28;20480;-60
2022/04/03 11:13:23;;;;;;;10.85;9.73;;;4.40;99.90;;;;;;5039799;28;20051;-61
2022/04/03 11:15:50;;;;;;;11.95;9.48;;;4.00;99.90;;;;;;5042006;28;20041;-60
2022/04/03 11:18:33;;;;;;;12.02;10.15;;;3.90;99.90;;;;;;5041018;28;20035;-59
2022/04/03 11:21:04;;;;;;;12.45;11.15;;;3.30;99.90;;;;;;5042450;28;20036;-60
2022/04/03 11:23:30;;;;;;;11.63;10.40;;;4.00;99.90;;;;;;5042681;28;20404;-59
2022/04/03 11:25:56;;;;;;;10.90;7.90;;;5.10;99.90;;;;;;5042110;28;20029;-60
2022/04/03 11:28:22;;;;;;;12.45;9.52;;;6.80;98.40;;;;;;5041431;28;20040;-61
2022/04/03 11:30:49;;;;;;;8.70;7.90;;;7.80;95.90;;;;;;5041453;28;20049;-60
2022/04/03 11:33:15;;;;;;;23.15;13.40;;;8.80;92.90;;;;;;5041543;28;20041;-60
2022/04/03 11:35:42;;;;;;;9.35;8.40;;;7.80;93.00;;;;;;5041158;28;20078;-60
2022/04/03 11:38:09;;;;;;;9.05;8.20;;;6.70;92.50;;;;;;5041527;28;20040;-59
2022/04/03 11:40:36;;;;;;;12.95;10.75;;;6.00;96.80;;;;;;5040695;28;20485;-60
2022/04/03 11:43:09;;;;;;;14.32;12.07;;;5.20;99.50;;;;;;5041605;28;20037;-60
2022/04/03 11:45:36;;;;;;;13.40;11.90;;;4.60;99.90;;;;;;5041844;28;20095;-59
2022/04/03 11:48:22;;;;;;;14.95;12.43;;;4.20;99.90;;;;;;5047760;28;20464;-60
2022/04/03 11:50:51;;;;;;;16.63;12.00;;;3.50;99.90;;;;;;5051658;28;20041;-59
2022/04/03 11:53:18;;;;;;;16.05;12.32;;;3.60;99.90;;;;;;5052151;28;20017;-60
2022/04/03 11:55:44;;;;;;;18.08;13.55;;;3.40;99.90;;;;;;5051653;28;20021;-59
2022/04/03 11:58:10;;;;;;;19.35;13.07;;;3.20;99.90;;;;;;5051656;28;20025;-58
2022/04/03 12:00:45;;;;;;;17.00;12.63;;;3.10;99.90;;;;;;5051864;28;20194;-59
2022/04/03 12:03:11;;;;;;;24.98;18.10;;;2.80;99.90;;;;;;5051951;28;20028;-59
2022/04/03 12:05:41;;;;;;;22.75;16.67;;;2.80;99.90;;;;;;5050642;28;20120;-59
2022/04/03 12:08:07;;;;;;;17.90;13.85;;;2.80;99.90;;;;;;5052022;28;20036;-60
2022/04/03 12:10:33;;;;;;;15.63;13.35;;;3.00;99.90;;;;;;5051772;28;20024;-60
2022/04/03 12:12:59;;;;;;;15.98;13.68;;;3.20;99.90;;;;;;5052111;28;20067;-60
2022/04/03 12:15:29;;;;;;;15.48;13.85;;;3.30;99.90;;;;;;5051937;28;20121;-60
2022/04/03 12:17:56;;;;;;;20.33;17.05;;;3.60;99.90;;;;;;5051755;28;20376;-60
2022/04/03 12:20:21;;;;;;;18.17;14.43;;;4.00;99.90;;;;;;5051425;28;20025;-60
2022/04/03 12:22:51;;;;;;;21.83;13.98;;;4.30;99.90;;;;;;5051784;28;20040;-60
2022/04/03 12:25:17;;;;;;;14.85;10.18;;;4.90;99.90;;;;;;5033853;28;20499;-60
2022/04/03 12:27:43;;;;;;;12.45;11.15;;;5.50;99.90;;;;;;5046327;28;20060;-59
2022/04/03 12:30:09;;;;;;;10.00;9.00;;;6.10;98.80;;;;;;5045023;28;20491;-60
2022/04/03 12:32:36;;;;;;;19.63;11.90;;;6.20;98.20;;;;;;5032100;28;20063;-58
2022/04/03 12:35:07;;;;;;;12.98;10.10;;;6.60;98.50;;;;;;5035677;28;20028;-58
2022/04/03 12:37:35;;;;;;;12.48;9.77;;;6.80;96.90;;;;;;5051722;28;20134;-60
2022/04/03 12:40:05;;;;;;;9.90;8.90;;;6.80;96.20;;;;;;5052451;28;20075;-60